createdAt,value
2023-01-28T00:03:42.903Z,12.70
2023-01-28T00:08:44.925Z,11.15
2023-01-28T00:13:46.729Z,11.85
2023-01-28T00:18:48.809Z,11.55
2023-01-28T00:23:55.709Z,11.50
2023-01-28T00:28:57.443Z,11.40
2023-01-28T00:33:59.361Z,10.80
2023-01-28T00:39:01.215Z,9.95
2023-01-28T00:44:03.144Z,11.30
2023-01-28T00:49:04.941Z,12.32
2023-01-28T00:54:06.795Z,11.43
2023-01-28T00:59:08.572Z,10.70
2023-01-28T01:04:10.660Z,10.20
2023-01-28T01:09:12.950Z,15.73
2023-01-28T01:14:14.724Z,14.32
2023-01-28T01:19:16.527Z,13.38
2023-01-28T01:24:18.391Z,14.02
2023-01-28T01:29:20.179Z,16.58
2023-01-28T01:34:22.447Z,13.65
2023-01-28T01:39:24.204Z,14.50
2023-01-28T01:45:00.278Z,15.90
2023-01-28T01:50:09.853Z,17.20
2023-01-28T01:55:17.162Z,17.75
2023-01-28T02:00:19.586Z,16.40
2023-01-28T02:05:23.063Z,16.85
2023-01-28T02:10:25.530Z,18.77
2023-01-28T02:15:29.776Z,19.50
2023-01-28T02:20:50.475Z,21.27
2023-01-28T02:31:09.326Z,19.98
2023-01-28T02:36:37.071Z,18.35
2023-01-28T02:41:49.726Z,16.58
2023-01-28T02:47:12.941Z,18.17
2023-01-28T02:52:46.283Z,21.80
2023-01-28T02:57:51.030Z,19.48
2023-01-28T03:03:05.506Z,19.05
2023-01-28T03:08:27.641Z,17.90
2023-01-28T03:13:48.073Z,19.40
2023-01-28T03:19:10.273Z,14.20
2023-01-28T03:24:32.864Z,17.08
2023-01-28T03:29:55.325Z,19.50
2023-01-28T03:35:16.212Z,17.30
2023-01-28T03:40:18.944Z,17.35
2023-01-28T03:45:21.562Z,16.45
2023-01-28T03:50:23.330Z,19.27
2023-01-28T03:55:25.901Z,17.08
2023-01-28T04:00:27.711Z,15.50
2023-01-28T04:05:29.561Z,17.90
2023-01-28T04:10:31.386Z,15.52
2023-01-28T04:15:33.762Z,17.17
2023-01-28T04:20:36.123Z,18.35
2023-01-28T04:25:37.891Z,16.75
2023-01-28T04:30:39.720Z,17.70
2023-01-28T04:35:41.664Z,15.30
2023-01-28T04:40:43.505Z,18.25
2023-01-28T04:45:45.824Z,18.75
2023-01-28T04:50:47.765Z,17.17
2023-01-28T04:55:49.691Z,17.65
2023-01-28T05:00:59.161Z,19.10
2023-01-28T05:06:01.228Z,15.98
2023-01-28T05:11:03.229Z,17.02
2023-01-28T05:16:05.555Z,19.33
2023-01-28T05:21:07.798Z,17.25
2023-01-28T05:26:10.147Z,17.67
2023-01-28T05:31:12.176Z,15.23
2023-01-28T05:36:13.974Z,15.48
2023-01-28T05:41:16.046Z,17.80
2023-01-28T05:46:17.809Z,21.05
2023-01-28T05:51:19.600Z,14.48
2023-01-28T05:56:21.357Z,16.85
2023-01-28T06:01:23.152Z,17.45
2023-01-28T06:06:25.195Z,20.73
2023-01-28T06:11:27.563Z,20.05
2023-01-28T06:16:29.503Z,18.85
2023-01-28T06:21:31.261Z,19.15
2023-01-28T06:26:33.303Z,21.08
2023-01-28T06:31:35.105Z,20.02
2023-01-28T06:36:38.166Z,19.00
2023-01-28T06:41:40.020Z,19.08
2023-01-28T06:46:42.350Z,16.85
2023-01-28T06:51:44.147Z,16.15
2023-01-28T06:56:45.980Z,17.17
2023-01-28T07:01:47.788Z,18.95
2023-01-28T07:06:49.633Z,16.08
2023-01-28T07:11:51.757Z,17.50
2023-01-28T07:16:53.906Z,15.00
2023-01-28T07:21:58.292Z,18.48
2023-01-28T07:27:00.421Z,16.48
2023-01-28T07:32:02.444Z,13.00
2023-01-28T07:37:04.302Z,16.45
2023-01-28T07:42:06.876Z,16.67
2023-01-28T07:47:08.691Z,16.25
2023-01-28T07:52:10.657Z,15.90
2023-01-28T07:57:12.474Z,14.63
2023-01-28T08:02:14.855Z,13.75
2023-01-28T08:07:16.633Z,15.57
2023-01-28T08:12:18.406Z,14.00
2023-01-28T08:17:20.430Z,16.13
2023-01-28T08:22:25.931Z,16.10
2023-01-28T08:27:27.755Z,15.50
2023-01-28T08:32:31.007Z,13.68
2023-01-28T08:37:32.815Z,13.38
2023-01-28T08:42:34.614Z,16.05
2023-01-28T08:47:36.376Z,16.77
2023-01-28T08:52:38.198Z,14.60
2023-01-28T08:57:40.060Z,14.70
2023-01-28T09:02:41.984Z,15.32
2023-01-28T09:07:43.775Z,14.65
2023-01-28T09:12:45.582Z,16.15
2023-01-28T09:17:47.359Z,18.63
2023-01-28T09:22:49.122Z,18.30
2023-01-28T09:27:51.133Z,18.10
2023-01-28T09:32:54.429Z,17.50
2023-01-28T09:38:00.458Z,14.23
2023-01-28T09:43:36.154Z,18.65
2023-01-28T09:48:43.104Z,16.73
2023-01-28T09:53:50.003Z,16.30
2023-01-28T09:58:52.337Z,16.75
2023-01-28T10:04:24.675Z,17.70
2023-01-28T10:09:44.675Z,14.73
2023-01-28T10:14:46.716Z,15.10
2023-01-28T10:20:07.627Z,15.90
2023-01-28T10:25:22.436Z,15.85
2023-01-28T10:30:27.083Z,18.65
2023-01-28T10:35:33.171Z,30.40
2023-01-28T10:40:35.815Z,14.82
2023-01-28T10:46:07.886Z,19.95
2023-01-28T10:51:09.830Z,12.65
2023-01-28T10:56:38.006Z,15.82
2023-01-28T11:01:52.105Z,16.17
2023-01-28T11:07:03.229Z,16.52
2023-01-28T11:12:34.749Z,16.95
2023-01-28T11:17:39.266Z,18.30
2023-01-28T11:22:45.443Z,17.38
2023-01-28T11:27:49.607Z,16.25
2023-01-28T11:33:00.140Z,16.40
2023-01-28T11:38:02.362Z,10.02
2023-01-28T11:43:08.770Z,19.13
2023-01-28T11:48:34.171Z,17.20
2023-01-28T11:53:52.150Z,16.45
2023-01-28T11:58:59.711Z,18.60
2023-01-28T12:04:28.962Z,19.40
2023-01-28T12:09:39.899Z,15.32
2023-01-28T12:15:06.920Z,17.15
2023-01-28T12:20:15.242Z,20.08
2023-01-28T12:25:43.393Z,13.27
2023-01-28T12:30:45.220Z,16.70
2023-01-28T12:35:53.718Z,18.05
2023-01-28T12:41:08.732Z,19.25
2023-01-28T12:46:30.923Z,17.70
2023-01-28T12:52:00.122Z,18.77
2023-01-28T12:57:03.057Z,20.98
2023-01-28T13:02:13.860Z,20.90
2023-01-28T13:07:30.594Z,16.90
2023-01-28T13:12:34.078Z,18.13
2023-01-28T13:17:35.860Z,18.38
2023-01-28T13:22:37.721Z,18.02
2023-01-28T13:27:39.450Z,20.92
2023-01-28T13:32:41.274Z,17.83
2023-01-28T13:37:47.051Z,18.08
2023-01-28T13:42:59.110Z,17.60
2023-01-28T13:48:32.915Z,16.70
2023-01-28T13:53:56.372Z,15.93
2023-01-28T13:59:25.913Z,19.90
2023-01-28T14:04:58.118Z,17.63
2023-01-28T14:10:33.469Z,21.08
2023-01-28T14:15:59.862Z,17.63
2023-01-28T14:21:08.611Z,16.48
2023-01-28T14:26:32.861Z,19.55
2023-01-28T14:31:39.501Z,16.20
2023-01-28T14:36:44.344Z,19.77
2023-01-28T14:41:49.080Z,17.05
2023-01-28T14:46:57.477Z,16.73
2023-01-28T14:52:02.239Z,20.30
2023-01-28T14:57:17.849Z,17.63
2023-01-28T15:02:25.619Z,19.77
2023-01-28T15:07:28.259Z,19.60
2023-01-28T15:12:33.211Z,18.40
2023-01-28T15:17:35.151Z,15.98
2023-01-28T15:22:38.772Z,18.30
2023-01-28T15:27:42.357Z,17.23
2023-01-28T15:32:44.120Z,19.00
2023-01-28T15:37:45.967Z,19.05
2023-01-28T15:42:49.088Z,19.83
2023-01-28T15:47:52.301Z,20.33
2023-01-28T15:52:55.681Z,21.25
2023-01-28T15:57:57.644Z,20.80
2023-01-28T16:03:08.780Z,19.52
2023-01-28T16:08:28.205Z,23.92
2023-01-28T16:13:33.547Z,27.48
2023-01-28T16:18:53.142Z,20.25
2023-01-28T16:24:06.586Z,22.50
2023-01-28T16:29:17.147Z,21.83
2023-01-28T16:34:18.981Z,17.35
2023-01-28T16:39:20.771Z,22.80
2023-01-28T16:44:22.660Z,26.30
2023-01-28T16:49:24.756Z,27.92
2023-01-28T16:54:27.009Z,31.08
2023-01-28T16:59:28.764Z,31.23
2023-01-28T17:04:30.758Z,30.60
2023-01-28T17:09:32.922Z,28.35
2023-01-28T17:14:34.773Z,26.77
2023-01-28T17:19:36.549Z,25.75
2023-01-28T17:24:38.592Z,22.70
2023-01-28T17:29:40.550Z,23.40
2023-01-28T17:34:42.424Z,21.17
2023-01-28T17:39:44.313Z,24.00
2023-01-28T17:44:46.096Z,24.67
2023-01-28T17:49:48.598Z,19.75
2023-01-28T17:54:50.359Z,20.88
2023-01-28T17:59:52.364Z,17.95
2023-01-28T18:04:54.213Z,29.65
2023-01-28T18:09:56.027Z,27.63
2023-01-28T18:14:57.838Z,24.05
2023-01-28T18:19:59.668Z,25.13
2023-01-28T18:25:01.589Z,21.52
2023-01-28T18:30:03.734Z,24.98
2023-01-28T18:35:06.700Z,27.42
2023-01-28T18:40:09.279Z,33.30
2023-01-28T18:45:11.647Z,35.60
2023-01-28T18:50:16.515Z,31.80
2023-01-28T18:55:19.375Z,43.08
2023-01-28T19:00:21.399Z,35.15
2023-01-28T19:05:23.918Z,37.25
2023-01-28T19:10:25.731Z,37.72
2023-01-28T19:15:27.746Z,39.22
2023-01-28T19:20:29.937Z,36.67
2023-01-28T19:25:31.861Z,34.20
2023-01-28T19:30:37.829Z,36.95
2023-01-28T19:35:39.615Z,33.85
2023-01-28T19:40:42.645Z,36.42
2023-01-28T19:45:44.783Z,39.33
2023-01-28T19:50:46.701Z,35.72
2023-01-28T19:55:50.690Z,38.47
2023-01-28T20:00:53.847Z,35.67
2023-01-28T20:06:00.442Z,35.05
2023-01-28T20:11:06.337Z,39.30
2023-01-28T20:16:11.649Z,42.45
2023-01-28T20:21:13.413Z,47.97
2023-01-28T20:26:16.181Z,45.88
2023-01-28T20:31:19.677Z,46.08
2023-01-28T20:36:21.717Z,50.17
2023-01-28T20:41:29.317Z,47.80
2023-01-28T20:46:34.415Z,45.42
2023-01-28T20:51:39.525Z,44.42
2023-01-28T20:56:41.319Z,50.22
2023-01-28T21:01:46.328Z,48.50
2023-01-28T21:06:48.224Z,50.38
2023-01-28T21:11:50.005Z,48.50
2023-01-28T21:16:53.232Z,43.17
2023-01-28T21:21:57.600Z,44.53
2023-01-28T21:27:00.905Z,39.13
2023-01-28T21:32:02.942Z,43.15
2023-01-28T21:37:04.770Z,46.83
2023-01-28T21:42:08.848Z,42.28
2023-01-28T21:47:10.650Z,42.50
2023-01-28T21:52:13.823Z,44.40
2023-01-28T21:57:15.608Z,46.75
2023-01-28T22:02:17.536Z,45.47
2023-01-28T22:07:22.436Z,44.55
2023-01-28T22:12:24.314Z,45.80
2023-01-28T22:17:26.320Z,43.13
2023-01-28T22:22:28.101Z,49.28
2023-01-28T22:27:29.890Z,47.10
2023-01-28T22:32:31.679Z,52.28
2023-01-28T22:37:33.713Z,43.97
2023-01-28T22:42:35.485Z,44.88
2023-01-28T22:47:37.616Z,45.03
2023-01-28T22:52:39.390Z,54.35
2023-01-28T22:57:41.269Z,52.83
2023-01-28T23:02:44.174Z,50.72
2023-01-28T23:07:45.980Z,53.33
2023-01-28T23:12:53.351Z,48.63
2023-01-28T23:18:13.749Z,50.67
2023-01-28T23:23:35.651Z,36.80
2023-01-28T23:28:37.453Z,48.67
2023-01-28T23:33:39.235Z,46.33
2023-01-28T23:38:41.036Z,41.20
2023-01-28T23:43:42.896Z,42.50
2023-01-28T23:48:44.832Z,51.55
2023-01-28T23:53:48.487Z,47.28
2023-01-28T23:58:50.838Z,44.55
